< Typhoon 195503 1955 Season Typhoon 195505 >
Typhoon 195504 (ANITA)
General InformationTrack Information on Google Maps || Disaster Info.ResourceGoogle EarthGE AnimationAtom FeedGeoJSON
Detalied Best Track (Time Zone = UTC)
Year Month Day Hour Lat. Long. Pressure (hPa) Wind (kt) Class Image Chart
1955 4 17 00 6.8 139.4 990 0 9 -- Chart
1955 4 17 06 7.4 139.4 980 0 9 -- Chart
1955 4 17 12 8.0 139.3 980 0 9 -- Chart
1955 4 17 18 8.7 139.1 980 0 9 -- Chart
1955 4 18 00 9.4 138.7 980 0 9 -- Chart
1955 4 18 06 9.7 138.0 990 0 9 -- Chart
1955 4 18 12 10.3 137.6 990 0 9 -- Chart
1955 4 18 18 10.6 137.4 990 0 9 -- Chart
1955 4 19 00 11.0 137.2 995 0 9 -- Chart
1955 4 19 06 11.4 136.6 995 0 9 -- Chart
1955 4 19 12 12.1 136.3 995 0 9 -- Chart
1955 4 19 18 12.9 135.9 995 0 9 -- Chart
1955 4 20 00 13.3 135.4 990 0 9 -- Chart
1955 4 20 06 13.4 134.7 990 0 9 -- Chart
1955 4 20 12 13.6 134.3 990 0 9 -- Chart
1955 4 20 18 13.9 133.9 990 0 9 -- Chart
1955 4 21 00 14.3 133.6 995 0 9 -- Chart
1955 4 21 06 15.2 133.6 995 0 9 -- Chart
1955 4 21 12 16.1 133.3 995 0 9 -- Chart
1955 4 21 18 16.8 132.9 990 0 9 -- Chart
1955 4 22 00 17.2 132.3 985 0 9 -- Chart
1955 4 22 06 17.4 132.1 985 0 9 -- Chart
1955 4 22 12 17.7 131.9 985 0 9 -- Chart
1955 4 22 18 17.9 131.6 985 0 9 -- Chart
1955 4 23 00 18.2 131.3 985 0 9 -- Chart
1955 4 23 06 18.6 130.9 990 0 9 -- Chart
1955 4 23 12 19.1 130.3 990 0 9 -- Chart
1955 4 23 18 19.5 130.1 990 0 9 -- Chart
1955 4 24 00 19.8 130.0 980 0 9 -- Chart
1955 4 24 06 20.4 129.9 980 0 9 -- Chart
1955 4 24 12 21.2 130.1 980 0 9 -- Chart
1955 4 24 18 21.5 130.6 980 0 9 -- Chart
1955 4 25 00 22.0 131.1 980 0 9 -- Chart
1955 4 25 06 22.5 131.6 980 0 9 -- Chart
1955 4 25 12 22.7 131.9 990 0 9 -- Chart
1955 4 25 18 22.7 131.9 1000 0 9 -- Chart
1955 4 26 00 22.7 131.8 1000 0 9 -- Chart
1955 4 26 06 22.8 131.5 1000 0 9 -- Chart
1955 4 26 12 23.0 131.1 1000 0 9 -- Chart
1955 4 26 18 23.3 130.3 1005 0 9 -- Chart
1955 4 27 00 23.8 129.0 1010 0 9 -- Chart
1955 4 27 06 24.3 128.2 1012 0 2 -- Chart
1955 4 27 12 25.0 128.0 1012 0 2 -- Chart
1955 4 27 18 25.3 128.5 1012 0 2 -- Chart
1955 4 28 00 25.9 129.0 1013 0 2 -- Chart
1955 4 28 06 26.5 129.6 1012 0 6 -- Chart
1955 4 28 12 27.4 130.5 1012 0 6 -- Chart
1955 4 28 18 28.4 131.8 1012 0 6 -- Chart
1955 4 29 00 29.2 133.0 1012 0 6 -- Chart
1955 4 29 06 30.0 134.1 1012 0 6 -- Chart
1955 4 29 12 30.0 136.0 1012 0 6 -- Chart
1955 4 29 18 29.8 138.0 1012 0 6 -- Chart
1955 4 30 00 29.0 139.0 1014 0 6 -- Chart
Japan Meteorological Agency Best Track Data | Correction Date : 1989-06-01
< Typhoon 195503 1955 Season Typhoon 195505 >

Help